Tyro, Mississippi
Current Conditions -  °F | °C
As of 1:15 AM on Thursday 18 Dec 2014 (Local Time) from KUOX Reporting Station
Overcast Overcast  
Wind Chill: 37°   Ceiling: 8000
Heat Index: 37°   Visibility: 10mi
Dew Point: 32°   Wind: 3mph
Humidity: 81%   Direction: 30°NNE
Pressure: 30.27"   Gusts: NA
Location:  34.6336°N, 89.8203°W
Report Text: KUOX 180715Z AUTO 03003KT 10SM OVC080 03/00 A3027 RMK AO2 PWINO PNO
Loading
Personal Weather Stations






























Interactive Weather Map New forecast layout! Learn more

10-Day Weather Forecast

Advertisements
Track Severe Weather on mobile